Terminal Aerodrome Forecast
Issued by NWS Portland, OR

Home | Current Version | Previous Version | Text Only | Print | Product List | Glossary On
Versions: 1 2 3 4 5 6 7 8 9 10 11 12 13 14 15 16 17 18 19 20 21 22 23 24 25 26 27 28 29 30 31 32 33 34 35 36 37 38 39 40 41 42 43 44 45 46 47 48 49 50
000
FTUS46 KPQR 131158 CCB
TAFTTD
TAF COR
KTTD 131158Z 1312/1412 VRB03KT 6SM BR VCSH FEW002 SCT025 BKN050
      TEMPO 1312/1316 5SM BR BKN025
     FM131800 22006KT P6SM VCSH SCT021 BKN045
     FM140200 00000KT 6SM BR SCT015 BKN028=

USA.gov is the U.S. government's official web portal to all federal, state and local government web resources and services.